sensor_id;sensor_type;location;lat;lon;timestamp;temperature;humidity
31597;DHT22;18201;50.978;7.034;2023-04-24T00:00:15;11.40;99.90
31597;DHT22;18201;50.978;7.034;2023-04-24T00:00:48;11.40;99.90
31597;DHT22;18201;50.978;7.034;2023-04-24T00:01:19;11.40;99.90
31597;DHT22;18201;50.978;7.034;2023-04-24T00:01:51;11.40;99.90
31597;DHT22;18201;50.978;7.034;2023-04-24T00:02:23;11.40;99.90
31597;DHT22;18201;50.978;7.034;2023-04-24T00:02:56;11.40;99.90
31597;DHT22;18201;50.978;7.034;2023-04-24T00:03:28;11.40;99.90
31597;DHT22;18201;50.978;7.034;2023-04-24T00:03:59;11.40;99.90
31597;DHT22;18201;50.978;7.034;2023-04-24T00:04:32;11.40;99.90
31597;DHT22;18201;50.978;7.034;2023-04-24T00:05:03;11.40;99.90
31597;DHT22;18201;50.978;7.034;2023-04-24T00:05:34;11.40;99.90
31597;DHT22;18201;50.978;7.034;2023-04-24T00:06:07;11.40;99.90
31597;DHT22;18201;50.978;7.034;2023-04-24T00:06:38;11.40;99.90
31597;DHT22;18201;50.978;7.034;2023-04-24T00:07:13;11.40;99.90
31597;DHT22;18201;50.978;7.034;2023-04-24T00:07:47;11.40;99.90
31597;DHT22;18201;50.978;7.034;2023-04-24T00:08:18;11.40;99.90
31597;DHT22;18201;50.978;7.034;2023-04-24T00:08:49;11.40;99.90
31597;DHT22;18201;50.978;7.034;2023-04-24T00:09:21;11.50;99.90
31597;DHT22;18201;50.978;7.034;2023-04-24T00:09:52;11.40;99.90
31597;DHT22;18201;50.978;7.034;2023-04-24T00:10:23;11.50;99.90
31597;DHT22;18201;50.978;7.034;2023-04-24T00:10:55;11.50;96.70
31597;DHT22;18201;50.978;7.034;2023-04-24T00:11:26;11.50;89.30
31597;DHT22;18201;50.978;7.034;2023-04-24T00:11:57;11.50;74.10
31597;DHT22;18201;50.978;7.034;2023-04-24T00:12:29;11.50;78.20
31597;DHT22;18201;50.978;7.034;2023-04-24T00:13:00;11.60;72.20
31597;DHT22;18201;50.978;7.034;2023-04-24T00:13:31;11.50;66.40
31597;DHT22;18201;50.978;7.034;2023-04-24T00:14:02;11.60;64.30
31597;DHT22;18201;50.978;7.034;2023-04-24T00:14:35;11.60;54.70
31597;DHT22;18201;50.978;7.034;2023-04-24T00:15:09;11.60;61.40
31597;DHT22;18201;50.978;7.034;2023-04-24T00:15:40;11.60;12.10
31597;DHT22;18201;50.978;7.034;2023-04-24T00:16:12;11.70;5.40
31597;DHT22;18201;50.978;7.034;2023-04-24T00:16:43;11.70;21.70
31597;DHT22;18201;50.978;7.034;2023-04-24T00:17:14;11.70;24.10
31597;DHT22;18201;50.978;7.034;2023-04-24T00:17:46;11.70;29.30
31597;DHT22;18201;50.978;7.034;2023-04-24T00:18:17;11.70;26.70
31597;DHT22;18201;50.978;7.034;2023-04-24T00:18:48;11.70;39.20
31597;DHT22;18201;50.978;7.034;2023-04-24T00:19:20;11.70;43.90
31597;DHT22;18201;50.978;7.034;2023-04-24T00:19:51;11.70;53.70
31597;DHT22;18201;50.978;7.034;2023-04-24T00:20:29;11.60;54.40
31597;DHT22;18201;50.978;7.034;2023-04-24T00:21:03;11.60;59.30
31597;DHT22;18201;50.978;7.034;2023-04-24T00:21:34;11.60;49.70
31597;DHT22;18201;50.978;7.034;2023-04-24T00:22:04;11.70;42.40
31597;DHT22;18201;50.978;7.034;2023-04-24T00:22:36;11.60;43.60
31597;DHT22;18201;50.978;7.034;2023-04-24T00:23:08;11.70;28.90
31597;DHT22;18201;50.978;7.034;2023-04-24T00:23:38;11.70;40.40
31597;DHT22;18201;50.978;7.034;2023-04-24T00:24:10;11.60;69.90
31597;DHT22;18201;50.978;7.034;2023-04-24T00:24:41;11.60;40.30
31597;DHT22;18201;50.978;7.034;2023-04-24T00:25:12;11.60;36.70
31597;DHT22;18201;50.978;7.034;2023-04-24T00:25:43;11.60;35.90
31597;DHT22;18201;50.978;7.034;2023-04-24T00:26:15;11.60;58.90
31597;DHT22;18201;50.978;7.034;2023-04-24T00:26:46;11.60;54.20
31597;DHT22;18201;50.978;7.034;2023-04-24T00:27:17;11.60;43.20
31597;DHT22;18201;50.978;7.034;2023-04-24T00:27:49;11.60;58.60
31597;DHT22;18201;50.978;7.034;2023-04-24T00:28:19;11.60;57.90
31597;DHT22;18201;50.978;7.034;2023-04-24T00:28:50;11.60;50.20
31597;DHT22;18201;50.978;7.034;2023-04-24T00:29:22;11.60;71.10
31597;DHT22;18201;50.978;7.034;2023-04-24T00:29:53;11.60;64.10
31597;DHT22;18201;50.978;7.034;2023-04-24T00:30:25;11.50;59.00
31597;DHT22;18201;50.978;7.034;2023-04-24T00:30:57;11.60;46.30
31597;DHT22;18201;50.978;7.034;2023-04-24T00:31:28;11.60;51.30
31597;DHT22;18201;50.978;7.034;2023-04-24T00:31:59;11.50;47.50
31597;DHT22;18201;50.978;7.034;2023-04-24T00:32:31;11.50;57.00
31597;DHT22;18201;50.978;7.034;2023-04-24T00:33:02;11.50;52.00
31597;DHT22;18201;50.978;7.034;2023-04-24T00:33:33;11.50;58.70
31597;DHT22;18201;50.978;7.034;2023-04-24T00:34:05;11.60;60.60
31597;DHT22;18201;50.978;7.034;2023-04-24T00:34:36;11.50;68.20
31597;DHT22;18201;50.978;7.034;2023-04-24T00:35:07;11.50;60.70
31597;DHT22;18201;50.978;7.034;2023-04-24T00:35:39;11.60;55.50
31597;DHT22;18201;50.978;7.034;2023-04-24T00:36:10;11.50;60.40
31597;DHT22;18201;50.978;7.034;2023-04-24T00:36:41;11.60;61.60
31597;DHT22;18201;50.978;7.034;2023-04-24T00:37:13;11.50;67.20
31597;DHT22;18201;50.978;7.034;2023-04-24T00:37:44;11.50;68.80
31597;DHT22;18201;50.978;7.034;2023-04-24T00:38:15;11.50;64.30
31597;DHT22;18201;50.978;7.034;2023-04-24T00:38:46;11.50;81.50
31597;DHT22;18201;50.978;7.034;2023-04-24T00:39:17;11.50;58.40
31597;DHT22;18201;50.978;7.034;2023-04-24T00:39:48;11.50;73.20
31597;DHT22;18201;50.978;7.034;2023-04-24T00:40:19;11.60;70.50
31597;DHT22;18201;50.978;7.034;2023-04-24T00:40:51;11.60;69.30
31597;DHT22;18201;50.978;7.034;2023-04-24T00:41:22;11.50;60.60
31597;DHT22;18201;50.978;7.034;2023-04-24T00:41:53;11.50;58.10
31597;DHT22;18201;50.978;7.034;2023-04-24T00:42:24;11.60;73.80
31597;DHT22;18201;50.978;7.034;2023-04-24T00:42:56;11.50;88.80
31597;DHT22;18201;50.978;7.034;2023-04-24T00:43:27;11.50;82.00
31597;DHT22;18201;50.978;7.034;2023-04-24T00:43:59;11.50;80.20
31597;DHT22;18201;50.978;7.034;2023-04-24T00:44:32;11.50;91.50
31597;DHT22;18201;50.978;7.034;2023-04-24T00:45:04;11.50;83.60
31597;DHT22;18201;50.978;7.034;2023-04-24T00:45:37;11.50;87.60
31597;DHT22;18201;50.978;7.034;2023-04-24T00:46:09;11.50;85.70
31597;DHT22;18201;50.978;7.034;2023-04-24T00:46:40;11.50;76.90
31597;DHT22;18201;50.978;7.034;2023-04-24T00:47:12;11.50;91.60
31597;DHT22;18201;50.978;7.034;2023-04-24T00:47:43;11.50;81.60
31597;DHT22;18201;50.978;7.034;2023-04-24T00:48:15;11.50;84.00
31597;DHT22;18201;50.978;7.034;2023-04-24T00:48:46;11.50;74.40
31597;DHT22;18201;50.978;7.034;2023-04-24T00:49:18;11.50;96.80
31597;DHT22;18201;50.978;7.034;2023-04-24T00:49:50;11.50;91.00
31597;DHT22;18201;50.978;7.034;2023-04-24T00:50:21;11.60;80.80
31597;DHT22;18201;50.978;7.034;2023-04-24T00:50:52;11.50;92.40
31597;DHT22;18201;50.978;7.034;2023-04-24T00:51:23;11.60;99.40
31597;DHT22;18201;50.978;7.034;2023-04-24T00:51:55;11.50;97.30
31597;DHT22;18201;50.978;7.034;2023-04-24T00:52:27;11.50;95.50
31597;DHT22;18201;50.978;7.034;2023-04-24T00:53:01;11.50;95.40
31597;DHT22;18201;50.978;7.034;2023-04-24T00:53:32;11.50;89.80
31597;DHT22;18201;50.978;7.034;2023-04-24T00:54:03;11.50;98.10
31597;DHT22;18201;50.978;7.034;2023-04-24T00:54:36;11.50;99.90
31597;DHT22;18201;50.978;7.034;2023-04-24T00:55:07;11.50;97.80
31597;DHT22;18201;50.978;7.034;2023-04-24T00:55:38;11.50;99.10
31597;DHT22;18201;50.978;7.034;2023-04-24T00:56:09;11.50;99.90
31597;DHT22;18201;50.978;7.034;2023-04-24T00:56:42;11.50;99.90
31597;DHT22;18201;50.978;7.034;2023-04-24T00:57:14;11.50;99.90
31597;DHT22;18201;50.978;7.034;2023-04-24T00:57:46;11.40;99.90
31597;DHT22;18201;50.978;7.034;2023-04-24T00:58:19;11.40;99.90
31597;DHT22;18201;50.978;7.034;2023-04-24T00:58:51;11.50;99.90
31597;DHT22;18201;50.978;7.034;2023-04-24T00:59:22;11.40;99.90
31597;DHT22;18201;50.978;7.034;2023-04-24T00:59:53;11.40;99.90
31597;DHT22;18201;50.978;7.034;2023-04-24T01:00:25;11.40;99.90
31597;DHT22;18201;50.978;7.034;2023-04-24T01:01:20;11.50;99.90
31597;DHT22;18201;50.978;7.034;2023-04-24T01:01:51;11.40;99.90
31597;DHT22;18201;50.978;7.034;2023-04-24T01:02:24;11.40;99.90
31597;DHT22;18201;50.978;7.034;2023-04-24T01:02:58;11.40;99.90
31597;DHT22;18201;50.978;7.034;2023-04-24T01:03:30;11.40;98.10
31597;DHT22;18201;50.978;7.034;2023-04-24T01:04:05;11.40;94.10
31597;DHT22;18201;50.978;7.034;2023-04-24T01:04:38;11.50;92.60
31597;DHT22;18201;50.978;7.034;2023-04-24T01:05:09;11.40;49.00
31597;DHT22;18201;50.978;7.034;2023-04-24T01:05:42;11.50;50.20
31597;DHT22;18201;50.978;7.034;2023-04-24T01:06:13;11.50;23.70
31597;DHT22;18201;50.978;7.034;2023-04-24T01:06:45;11.50;23.60
31597;DHT22;18201;50.978;7.034;2023-04-24T01:07:19;11.50;29.90
31597;DHT22;18201;50.978;7.034;2023-04-24T01:07:51;11.50;24.80
31597;DHT22;18201;50.978;7.034;2023-04-24T01:08:24;11.50;15.90
31597;DHT22;18201;50.978;7.034;2023-04-24T01:08:55;11.50;11.80
31597;DHT22;18201;50.978;7.034;2023-04-24T01:09:26;11.50;15.90
31597;DHT22;18201;50.978;7.034;2023-04-24T01:09:57;11.50;26.90
31597;DHT22;18201;50.978;7.034;2023-04-24T01:10:29;11.50;7.90
31597;DHT22;18201;50.978;7.034;2023-04-24T01:11:03;11.50;1.00
31597;DHT22;18201;50.978;7.034;2023-04-24T01:11:34;11.50;1.00
31597;DHT22;18201;50.978;7.034;2023-04-24T01:12:06;11.50;1.00
31597;DHT22;18201;50.978;7.034;2023-04-24T01:12:37;11.50;1.00
31597;DHT22;18201;50.978;7.034;2023-04-24T01:13:08;11.60;1.00
31597;DHT22;18201;50.978;7.034;2023-04-24T01:13:40;11.60;1.00
31597;DHT22;18201;50.978;7.034;2023-04-24T01:14:11;11.60;1.00
31597;DHT22;18201;50.978;7.034;2023-04-24T01:14:42;11.60;1.00
31597;DHT22;18201;50.978;7.034;2023-04-24T01:15:14;11.60;1.00
31597;DHT22;18201;50.978;7.034;2023-04-24T01:15:46;11.60;1.00
31597;DHT22;18201;50.978;7.034;2023-04-24T01:16:17;11.60;1.00
31597;DHT22;18201;50.978;7.034;2023-04-24T01:16:52;11.60;1.00
31597;DHT22;18201;50.978;7.034;2023-04-24T01:17:23;11.50;1.00
31597;DHT22;18201;50.978;7.034;2023-04-24T01:17:54;11.60;1.00
31597;DHT22;18201;50.978;7.034;2023-04-24T01:18:26;11.60;1.00
31597;DHT22;18201;50.978;7.034;2023-04-24T01:18:58;11.50;1.00
31597;DHT22;18201;50.978;7.034;2023-04-24T01:19:29;11.50;1.00
31597;DHT22;18201;50.978;7.034;2023-04-24T01:20:01;11.50;1.00
31597;DHT22;18201;50.978;7.034;2023-04-24T01:20:35;11.50;1.00
31597;DHT22;18201;50.978;7.034;2023-04-24T01:21:13;11.50;1.00
31597;DHT22;18201;50.978;7.034;2023-04-24T01:21:47;11.50;1.00
31597;DHT22;18201;50.978;7.034;2023-04-24T01:22:22;11.50;1.00
31597;DHT22;18201;50.978;7.034;2023-04-24T01:22:54;11.50;1.00
31597;DHT22;18201;50.978;7.034;2023-04-24T01:23:26;11.50;1.00
31597;DHT22;18201;50.978;7.034;2023-04-24T01:23:57;11.50;1.00
31597;DHT22;18201;50.978;7.034;2023-04-24T01:24:28;11.50;1.00
31597;DHT22;18201;50.978;7.034;2023-04-24T01:25:01;11.50;1.00
31597;DHT22;18201;50.978;7.034;2023-04-24T01:25:32;11.50;1.00
31597;DHT22;18201;50.978;7.034;2023-04-24T01:26:03;11.50;1.00
31597;DHT22;18201;50.978;7.034;2023-04-24T01:26:35;11.50;1.00
31597;DHT22;18201;50.978;7.034;2023-04-24T01:27:06;11.50;1.00
31597;DHT22;18201;50.978;7.034;2023-04-24T01:27:37;11.50;1.00
31597;DHT22;18201;50.978;7.034;2023-04-24T01:28:08;11.50;1.00
31597;DHT22;18201;50.978;7.034;2023-04-24T01:28:40;11.50;1.00
31597;DHT22;18201;50.978;7.034;2023-04-24T01:29:12;11.50;1.00
31597;DHT22;18201;50.978;7.034;2023-04-24T01:29:42;11.50;1.00
31597;DHT22;18201;50.978;7.034;2023-04-24T01:30:14;11.50;1.00
31597;DHT22;18201;50.978;7.034;2023-04-24T01:30:45;11.50;1.00
31597;DHT22;18201;50.978;7.034;2023-04-24T01:31:16;11.40;1.00
31597;DHT22;18201;50.978;7.034;2023-04-24T01:31:48;11.50;1.00
31597;DHT22;18201;50.978;7.034;2023-04-24T01:32:19;11.50;1.00
31597;DHT22;18201;50.978;7.034;2023-04-24T01:32:51;11.50;1.00
31597;DHT22;18201;50.978;7.034;2023-04-24T01:33:23;11.40;1.00
31597;DHT22;18201;50.978;7.034;2023-04-24T01:33:54;11.40;1.00
31597;DHT22;18201;50.978;7.034;2023-04-24T01:34:26;11.50;1.00
31597;DHT22;18201;50.978;7.034;2023-04-24T01:34:58;11.40;1.00
31597;DHT22;18201;50.978;7.034;2023-04-24T01:35:29;11.40;1.00
31597;DHT22;18201;50.978;7.034;2023-04-24T01:36:00;11.40;1.00
31597;DHT22;18201;50.978;7.034;2023-04-24T01:36:32;11.40;1.00
31597;DHT22;18201;50.978;7.034;2023-04-24T01:37:05;11.40;1.00
31597;DHT22;18201;50.978;7.034;2023-04-24T01:37:37;11.40;1.00
31597;DHT22;18201;50.978;7.034;2023-04-24T01:38:08;11.40;1.00
31597;DHT22;18201;50.978;7.034;2023-04-24T01:38:41;11.40;1.00
31597;DHT22;18201;50.978;7.034;2023-04-24T01:39:12;11.40;1.00
31597;DHT22;18201;50.978;7.034;2023-04-24T01:39:43;11.40;1.00
31597;DHT22;18201;50.978;7.034;2023-04-24T01:40:14;11.40;1.00
31597;DHT22;18201;50.978;7.034;2023-04-24T01:40:46;11.30;1.00
31597;DHT22;18201;50.978;7.034;2023-04-24T01:41:17;11.30;1.00
31597;DHT22;18201;50.978;7.034;2023-04-24T01:41:48;11.30;1.00
31597;DHT22;18201;50.978;7.034;2023-04-24T01:42:21;11.30;1.00
31597;DHT22;18201;50.978;7.034;2023-04-24T01:42:52;11.30;1.00
31597;DHT22;18201;50.978;7.034;2023-04-24T01:43:24;11.30;1.00
31597;DHT22;18201;50.978;7.034;2023-04-24T01:43:56;11.30;1.00
31597;DHT22;18201;50.978;7.034;2023-04-24T01:44:28;11.30;99.90
31597;DHT22;18201;50.978;7.034;2023-04-24T01:44:59;11.30;99.90
31597;DHT22;18201;50.978;7.034;2023-04-24T01:45:32;11.30;99.90
31597;DHT22;18201;50.978;7.034;2023-04-24T01:46:03;11.20;99.90
31597;DHT22;18201;50.978;7.034;2023-04-24T01:46:34;11.20;99.90
31597;DHT22;18201;50.978;7.034;2023-04-24T01:47:06;11.20;99.90
31597;DHT22;18201;50.978;7.034;2023-04-24T01:47:38;11.20;99.90
31597;DHT22;18201;50.978;7.034;2023-04-24T01:48:09;11.20;99.90
31597;DHT22;18201;50.978;7.034;2023-04-24T01:48:41;11.20;99.90
31597;DHT22;18201;50.978;7.034;2023-04-24T01:49:12;11.10;99.90
31597;DHT22;18201;50.978;7.034;2023-04-24T01:49:43;11.10;99.90
31597;DHT22;18201;50.978;7.034;2023-04-24T01:50:17;11.00;99.90
31597;DHT22;18201;50.978;7.034;2023-04-24T01:50:48;11.10;99.90
31597;DHT22;18201;50.978;7.034;2023-04-24T01:51:19;11.00;99.90
31597;DHT22;18201;50.978;7.034;2023-04-24T01:51:51;11.00;99.90
31597;DHT22;18201;50.978;7.034;2023-04-24T01:52:22;11.00;99.90
31597;DHT22;18201;50.978;7.034;2023-04-24T01:52:54;11.00;99.90
31597;DHT22;18201;50.978;7.034;2023-04-24T01:53:26;11.00;99.90
31597;DHT22;18201;50.978;7.034;2023-04-24T01:53:57;11.00;99.90
31597;DHT22;18201;50.978;7.034;2023-04-24T01:54:28;10.90;99.90
31597;DHT22;18201;50.978;7.034;2023-04-24T01:55:00;10.90;99.90
31597;DHT22;18201;50.978;7.034;2023-04-24T01:55:31;10.90;99.90
31597;DHT22;18201;50.978;7.034;2023-04-24T01:56:02;10.90;99.90
31597;DHT22;18201;50.978;7.034;2023-04-24T01:56:35;10.90;99.90
31597;DHT22;18201;50.978;7.034;2023-04-24T01:57:07;10.90;99.90
31597;DHT22;18201;50.978;7.034;2023-04-24T01:57:40;10.90;99.90
31597;DHT22;18201;50.978;7.034;2023-04-24T01:58:11;10.80;99.90
31597;DHT22;18201;50.978;7.034;2023-04-24T01:58:43;10.80;99.90
31597;DHT22;18201;50.978;7.034;2023-04-24T01:59:15;10.80;99.90
31597;DHT22;18201;50.978;7.034;2023-04-24T01:59:48;10.80;99.90
31597;DHT22;18201;50.978;7.034;2023-04-24T02:00:19;10.70;99.90
31597;DHT22;18201;50.978;7.034;2023-04-24T02:00:50;10.70;99.90
31597;DHT22;18201;50.978;7.034;2023-04-24T02:01:23;10.70;1.00
31597;DHT22;18201;50.978;7.034;2023-04-24T02:01:54;10.70;1.00
31597;DHT22;18201;50.978;7.034;2023-04-24T02:02:25;10.70;99.90
31597;DHT22;18201;50.978;7.034;2023-04-24T02:02:59;10.60;99.90
31597;DHT22;18201;50.978;7.034;2023-04-24T02:03:32;10.60;99.90
31597;DHT22;18201;50.978;7.034;2023-04-24T02:04:03;10.60;1.00
31597;DHT22;18201;50.978;7.034;2023-04-24T02:04:35;10.60;1.00
31597;DHT22;18201;50.978;7.034;2023-04-24T02:05:06;10.50;1.00
31597;DHT22;18201;50.978;7.034;2023-04-24T02:05:37;10.50;1.00
31597;DHT22;18201;50.978;7.034;2023-04-24T02:06:09;10.50;1.00
31597;DHT22;18201;50.978;7.034;2023-04-24T02:06:40;10.50;1.00
31597;DHT22;18201;50.978;7.034;2023-04-24T02:07:11;10.50;1.00
31597;DHT22;18201;50.978;7.034;2023-04-24T02:07:43;10.50;1.00
31597;DHT22;18201;50.978;7.034;2023-04-24T02:08:15;10.50;1.00
31597;DHT22;18201;50.978;7.034;2023-04-24T02:08:46;10.50;1.00
31597;DHT22;18201;50.978;7.034;2023-04-24T02:09:18;10.50;1.00
31597;DHT22;18201;50.978;7.034;2023-04-24T02:09:49;10.40;1.00
31597;DHT22;18201;50.978;7.034;2023-04-24T02:10:20;10.40;1.00
31597;DHT22;18201;50.978;7.034;2023-04-24T02:10:52;10.40;1.00
31597;DHT22;18201;50.978;7.034;2023-04-24T02:11:23;10.40;1.00
31597;DHT22;18201;50.978;7.034;2023-04-24T02:11:54;10.40;1.00
31597;DHT22;18201;50.978;7.034;2023-04-24T02:12:26;10.30;1.00
31597;DHT22;18201;50.978;7.034;2023-04-24T02:12:57;10.40;1.00
31597;DHT22;18201;50.978;7.034;2023-04-24T02:13:30;10.30;1.00
31597;DHT22;18201;50.978;7.034;2023-04-24T02:14:02;10.30;1.00
31597;DHT22;18201;50.978;7.034;2023-04-24T02:14:32;10.20;1.00
31597;DHT22;18201;50.978;7.034;2023-04-24T02:15:04;10.30;1.00
31597;DHT22;18201;50.978;7.034;2023-04-24T02:15:36;10.30;1.00
31597;DHT22;18201;50.978;7.034;2023-04-24T02:16:07;10.20;1.00
31597;DHT22;18201;50.978;7.034;2023-04-24T02:16:38;10.20;1.00
31597;DHT22;18201;50.978;7.034;2023-04-24T02:17:10;10.20;1.00
31597;DHT22;18201;50.978;7.034;2023-04-24T02:17:42;10.20;1.00
31597;DHT22;18201;50.978;7.034;2023-04-24T02:18:13;10.20;1.00
31597;DHT22;18201;50.978;7.034;2023-04-24T02:18:46;10.20;1.00
31597;DHT22;18201;50.978;7.034;2023-04-24T02:19:17;10.10;1.00
31597;DHT22;18201;50.978;7.034;2023-04-24T02:19:47;10.10;1.00
31597;DHT22;18201;50.978;7.034;2023-04-24T02:20:19;10.10;1.00
31597;DHT22;18201;50.978;7.034;2023-04-24T02:20:50;10.10;1.00
31597;DHT22;18201;50.978;7.034;2023-04-24T02:21:21;10.10;1.00
31597;DHT22;18201;50.978;7.034;2023-04-24T02:21:53;10.10;1.00
31597;DHT22;18201;50.978;7.034;2023-04-24T02:22:24;10.00;1.00
31597;DHT22;18201;50.978;7.034;2023-04-24T02:22:54;10.00;1.00
31597;DHT22;18201;50.978;7.034;2023-04-24T02:23:28;10.00;1.00
31597;DHT22;18201;50.978;7.034;2023-04-24T02:23:59;10.00;1.00
31597;DHT22;18201;50.978;7.034;2023-04-24T02:24:29;10.00;1.00
31597;DHT22;18201;50.978;7.034;2023-04-24T02:25:02;9.90;1.00
31597;DHT22;18201;50.978;7.034;2023-04-24T02:25:33;9.90;1.00
31597;DHT22;18201;50.978;7.034;2023-04-24T02:26:04;10.00;1.00
31597;DHT22;18201;50.978;7.034;2023-04-24T02:26:35;9.90;1.00
31597;DHT22;18201;50.978;7.034;2023-04-24T02:27:07;9.90;1.00
31597;DHT22;18201;50.978;7.034;2023-04-24T02:27:38;9.90;1.00
31597;DHT22;18201;50.978;7.034;2023-04-24T02:28:09;9.90;1.00
31597;DHT22;18201;50.978;7.034;2023-04-24T02:28:40;9.90;1.00
31597;DHT22;18201;50.978;7.034;2023-04-24T02:29:12;9.90;1.00
31597;DHT22;18201;50.978;7.034;2023-04-24T02:29:42;9.80;1.00
31597;DHT22;18201;50.978;7.034;2023-04-24T02:30:15;9.80;1.00
31597;DHT22;18201;50.978;7.034;2023-04-24T02:30:46;9.80;1.00
31597;DHT22;18201;50.978;7.034;2023-04-24T02:31:16;9.80;1.00
31597;DHT22;18201;50.978;7.034;2023-04-24T02:31:48;9.80;1.00
31597;DHT22;18201;50.978;7.034;2023-04-24T02:32:19;9.80;1.00
31597;DHT22;18201;50.978;7.034;2023-04-24T02:32:50;9.80;1.00
31597;DHT22;18201;50.978;7.034;2023-04-24T02:33:22;9.70;1.00
31597;DHT22;18201;50.978;7.034;2023-04-24T02:33:53;9.70;1.00
31597;DHT22;18201;50.978;7.034;2023-04-24T02:34:24;9.70;1.00
31597;DHT22;18201;50.978;7.034;2023-04-24T02:34:55;9.70;1.00
31597;DHT22;18201;50.978;7.034;2023-04-24T02:35:26;9.70;1.00
31597;DHT22;18201;50.978;7.034;2023-04-24T02:35:57;9.70;1.00
31597;DHT22;18201;50.978;7.034;2023-04-24T02:36:29;9.70;1.00
31597;DHT22;18201;50.978;7.034;2023-04-24T02:37:00;9.70;1.00
31597;DHT22;18201;50.978;7.034;2023-04-24T02:37:31;9.70;1.00
31597;DHT22;18201;50.978;7.034;2023-04-24T02:38:03;9.70;1.00
31597;DHT22;18201;50.978;7.034;2023-04-24T02:38:35;9.70;1.00
31597;DHT22;18201;50.978;7.034;2023-04-24T02:39:06;9.70;1.00
31597;DHT22;18201;50.978;7.034;2023-04-24T02:39:38;9.70;1.00
31597;DHT22;18201;50.978;7.034;2023-04-24T02:40:09;9.70;1.00
31597;DHT22;18201;50.978;7.034;2023-04-24T02:40:40;9.60;1.00
31597;DHT22;18201;50.978;7.034;2023-04-24T02:41:12;9.60;1.00
31597;DHT22;18201;50.978;7.034;2023-04-24T02:41:43;9.70;1.00
31597;DHT22;18201;50.978;7.034;2023-04-24T02:42:14;9.70;1.00
31597;DHT22;18201;50.978;7.034;2023-04-24T02:42:46;9.70;1.00
31597;DHT22;18201;50.978;7.034;2023-04-24T02:43:16;9.70;1.00
31597;DHT22;18201;50.978;7.034;2023-04-24T02:43:47;9.70;1.00
31597;DHT22;18201;50.978;7.034;2023-04-24T02:44:18;9.70;1.00
31597;DHT22;18201;50.978;7.034;2023-04-24T02:44:50;9.60;1.00
31597;DHT22;18201;50.978;7.034;2023-04-24T02:45:22;9.70;1.00
31597;DHT22;18201;50.978;7.034;2023-04-24T02:45:52;9.60;1.00
31597;DHT22;18201;50.978;7.034;2023-04-24T02:46:24;9.60;1.00
31597;DHT22;18201;50.978;7.034;2023-04-24T02:46:55;9.60;1.00
31597;DHT22;18201;50.978;7.034;2023-04-24T02:47:26;9.60;1.00
31597;DHT22;18201;50.978;7.034;2023-04-24T02:47:58;9.60;1.00
31597;DHT22;18201;50.978;7.034;2023-04-24T02:48:29;9.60;1.00
31597;DHT22;18201;50.978;7.034;2023-04-24T02:49:00;9.60;1.00
31597;DHT22;18201;50.978;7.034;2023-04-24T02:49:32;9.60;1.00
31597;DHT22;18201;50.978;7.034;2023-04-24T02:50:03;9.60;1.00
31597;DHT22;18201;50.978;7.034;2023-04-24T02:50:34;9.60;1.00
31597;DHT22;18201;50.978;7.034;2023-04-24T02:51:06;9.60;1.00
31597;DHT22;18201;50.978;7.034;2023-04-24T02:51:37;9.60;1.00
31597;DHT22;18201;50.978;7.034;2023-04-24T02:52:11;9.60;1.00
31597;DHT22;18201;50.978;7.034;2023-04-24T02:52:43;9.60;1.00
31597;DHT22;18201;50.978;7.034;2023-04-24T02:53:14;9.60;1.00
31597;DHT22;18201;50.978;7.034;2023-04-24T02:53:46;9.60;1.00
31597;DHT22;18201;50.978;7.034;2023-04-24T02:54:18;9.60;1.00
31597;DHT22;18201;50.978;7.034;2023-04-24T02:54:49;9.60;1.00
31597;DHT22;18201;50.978;7.034;2023-04-24T02:55:20;9.60;1.00
31597;DHT22;18201;50.978;7.034;2023-04-24T02:55:52;9.60;1.00
31597;DHT22;18201;50.978;7.034;2023-04-24T02:56:23;9.60;1.00
31597;DHT22;18201;50.978;7.034;2023-04-24T02:56:53;9.60;1.00
31597;DHT22;18201;50.978;7.034;2023-04-24T02:57:25;9.60;1.00
31597;DHT22;18201;50.978;7.034;2023-04-24T02:57:56;9.60;1.00
31597;DHT22;18201;50.978;7.034;2023-04-24T02:58:27;9.60;1.00
31597;DHT22;18201;50.978;7.034;2023-04-24T02:58:59;9.60;1.00
31597;DHT22;18201;50.978;7.034;2023-04-24T02:59:30;9.70;1.00
31597;DHT22;18201;50.978;7.034;2023-04-24T03:00:00;9.70;1.00
31597;DHT22;18201;50.978;7.034;2023-04-24T03:00:31;9.70;1.00
31597;DHT22;18201;50.978;7.034;2023-04-24T03:01:03;9.70;1.00
31597;DHT22;18201;50.978;7.034;2023-04-24T03:01:34;9.70;1.00
31597;DHT22;18201;50.978;7.034;2023-04-24T03:02:05;9.70;1.00
31597;DHT22;18201;50.978;7.034;2023-04-24T03:02:37;9.70;1.00
31597;DHT22;18201;50.978;7.034;2023-04-24T03:03:08;9.70;1.00
31597;DHT22;18201;50.978;7.034;2023-04-24T03:03:39;9.70;1.00
31597;DHT22;18201;50.978;7.034;2023-04-24T03:04:10;9.70;1.00
31597;DHT22;18201;50.978;7.034;2023-04-24T03:04:42;9.70;1.00
31597;DHT22;18201;50.978;7.034;2023-04-24T03:05:16;9.70;1.00
31597;DHT22;18201;50.978;7.034;2023-04-24T03:05:47;9.70;1.00
31597;DHT22;18201;50.978;7.034;2023-04-24T03:06:18;9.70;1.00
31597;DHT22;18201;50.978;7.034;2023-04-24T03:06:52;9.70;1.00
31597;DHT22;18201;50.978;7.034;2023-04-24T03:07:25;9.70;1.00
31597;DHT22;18201;50.978;7.034;2023-04-24T03:07:57;9.70;1.00
31597;DHT22;18201;50.978;7.034;2023-04-24T03:08:28;9.70;1.00
31597;DHT22;18201;50.978;7.034;2023-04-24T03:09:00;9.70;1.00
31597;DHT22;18201;50.978;7.034;2023-04-24T03:09:32;9.70;1.00
31597;DHT22;18201;50.978;7.034;2023-04-24T03:10:04;9.70;1.00
31597;DHT22;18201;50.978;7.034;2023-04-24T03:10:36;9.70;1.00
31597;DHT22;18201;50.978;7.034;2023-04-24T03:11:07;9.70;1.00
31597;DHT22;18201;50.978;7.034;2023-04-24T03:11:38;9.70;1.00
31597;DHT22;18201;50.978;7.034;2023-04-24T03:12:10;9.70;1.00
31597;DHT22;18201;50.978;7.034;2023-04-24T03:12:41;9.70;1.00
31597;DHT22;18201;50.978;7.034;2023-04-24T03:13:12;9.70;1.00
31597;DHT22;18201;50.978;7.034;2023-04-24T03:13:43;9.70;1.00
31597;DHT22;18201;50.978;7.034;2023-04-24T03:14:15;9.70;1.00
31597;DHT22;18201;50.978;7.034;2023-04-24T03:14:46;9.80;1.00
31597;DHT22;18201;50.978;7.034;2023-04-24T03:15:17;9.80;1.00
31597;DHT22;18201;50.978;7.034;2023-04-24T03:15:49;9.70;1.00
31597;DHT22;18201;50.978;7.034;2023-04-24T03:16:20;9.70;1.00
31597;DHT22;18201;50.978;7.034;2023-04-24T03:16:51;9.80;1.00
31597;DHT22;18201;50.978;7.034;2023-04-24T03:17:22;9.80;1.00
31597;DHT22;18201;50.978;7.034;2023-04-24T03:17:53;9.80;1.00
31597;DHT22;18201;50.978;7.034;2023-04-24T03:18:24;9.80;1.00
31597;DHT22;18201;50.978;7.034;2023-04-24T03:18:56;9.80;1.00
31597;DHT22;18201;50.978;7.034;2023-04-24T03:19:27;9.80;1.00
31597;DHT22;18201;50.978;7.034;2023-04-24T03:19:58;9.80;1.00
31597;DHT22;18201;50.978;7.034;2023-04-24T03:20:29;9.80;1.00
31597;DHT22;18201;50.978;7.034;2023-04-24T03:21:01;9.70;1.00
31597;DHT22;18201;50.978;7.034;2023-04-24T03:21:32;9.70;1.00
31597;DHT22;18201;50.978;7.034;2023-04-24T03:22:03;9.80;1.00
31597;DHT22;18201;50.978;7.034;2023-04-24T03:22:35;9.70;1.00
31597;DHT22;18201;50.978;7.034;2023-04-24T03:23:06;9.70;1.00